createdAt,value
2018-04-27T00:02:20.959Z,6.78
2018-04-27T00:04:48.541Z,6.84
2018-04-27T00:07:16.065Z,6.94
2018-04-27T00:09:43.642Z,6.99
2018-04-27T00:12:11.219Z,6.86
2018-04-27T00:14:38.755Z,7.04
2018-04-27T00:17:06.322Z,6.96
2018-04-27T00:19:33.875Z,6.87
2018-04-27T00:22:01.426Z,6.85
2018-04-27T00:24:28.952Z,6.86
2018-04-27T00:26:56.556Z,6.96
2018-04-27T00:29:24.114Z,6.96
2018-04-27T00:31:51.655Z,6.73
2018-04-27T00:34:19.193Z,6.77
2018-04-27T00:36:46.893Z,6.51
2018-04-27T00:39:14.416Z,6.87
2018-04-27T00:41:41.942Z,6.73
2018-04-27T00:44:09.497Z,6.75
2018-04-27T00:46:37.029Z,6.87
2018-04-27T00:49:05.475Z,7.01
2018-04-27T00:51:33.079Z,6.90
2018-04-27T00:54:00.657Z,6.88
2018-04-27T00:56:28.182Z,6.62
2018-04-27T00:58:55.735Z,6.48
2018-04-27T01:01:23.265Z,6.67
2018-04-27T01:03:50.813Z,6.90
2018-04-27T01:06:18.337Z,6.81
2018-04-27T01:08:45.995Z,6.87
2018-04-27T01:11:13.518Z,6.38
2018-04-27T01:13:41.046Z,6.68
2018-04-27T01:16:08.601Z,6.89
2018-04-27T01:18:36.130Z,6.93
2018-04-27T01:21:03.782Z,6.70
2018-04-27T01:23:31.455Z,6.47
2018-04-27T01:25:59.006Z,6.62
2018-04-27T01:28:26.563Z,6.64
2018-04-27T01:30:54.121Z,6.67
2018-04-27T01:33:21.683Z,6.70
2018-04-27T01:35:49.243Z,6.75
2018-04-27T01:38:16.750Z,6.59
2018-04-27T01:40:44.301Z,6.50
2018-04-27T01:43:11.854Z,6.59
2018-04-27T01:45:39.480Z,6.62
2018-04-27T01:48:07.008Z,6.64
2018-04-27T01:50:35.586Z,6.59
2018-04-27T01:53:03.185Z,6.52
2018-04-27T01:55:30.833Z,6.21
2018-04-27T01:57:58.403Z,6.17
2018-04-27T02:00:25.991Z,6.22
2018-04-27T02:02:53.624Z,6.38
2018-04-27T02:05:21.192Z,6.25
2018-04-27T02:07:48.850Z,6.30
2018-04-27T02:10:16.374Z,6.29
2018-04-27T02:12:43.930Z,6.38
2018-04-27T02:15:11.492Z,6.38
2018-04-27T02:17:39.083Z,6.35
2018-04-27T02:20:06.613Z,6.38
2018-04-27T02:22:34.159Z,6.45
2018-04-27T02:25:01.769Z,6.23
2018-04-27T02:27:29.322Z,6.13
2018-04-27T02:29:56.871Z,6.07
2018-04-27T02:32:24.447Z,6.07
2018-04-27T02:34:51.974Z,6.08
2018-04-27T02:37:19.501Z,6.01
2018-04-27T02:39:47.049Z,5.95
2018-04-27T02:42:14.581Z,5.95
2018-04-27T02:44:42.129Z,5.88
2018-04-27T02:47:09.650Z,5.82
2018-04-27T02:49:37.214Z,5.77
2018-04-27T02:52:04.735Z,5.67
2018-04-27T02:54:32.373Z,5.59
2018-04-27T02:56:59.892Z,5.80
2018-04-27T02:59:27.505Z,5.71
2018-04-27T03:01:55.047Z,5.71
2018-04-27T03:04:22.600Z,5.56
2018-04-27T03:06:50.127Z,5.51
2018-04-27T03:09:17.715Z,5.48
2018-04-27T03:11:45.289Z,5.51
2018-04-27T03:14:12.850Z,5.05
2018-04-27T03:16:40.410Z,5.09
2018-04-27T03:19:07.937Z,5.25
2018-04-27T03:21:36.344Z,5.27
2018-04-27T03:24:04.015Z,5.26
2018-04-27T03:26:31.571Z,5.37
2018-04-27T03:28:59.425Z,5.43
2018-04-27T03:31:26.970Z,5.47
2018-04-27T03:33:54.495Z,5.44
2018-04-27T03:36:22.053Z,5.36
2018-04-27T03:38:49.681Z,5.39
2018-04-27T03:41:17.261Z,5.43
2018-04-27T03:43:44.891Z,5.28
2018-04-27T03:46:12.490Z,5.28
2018-04-27T03:48:40.118Z,5.32
2018-04-27T03:51:07.671Z,5.21
2018-04-27T03:53:35.244Z,5.10
2018-04-27T03:56:02.751Z,5.19
2018-04-27T03:58:30.349Z,5.24
2018-04-27T04:01:09.757Z,5.38
2018-04-27T04:03:49.033Z,5.36
2018-04-27T04:06:19.505Z,5.15
2018-04-27T04:08:47.316Z,5.26
2018-04-27T04:11:14.874Z,5.11
2018-04-27T04:13:42.629Z,5.10
2018-04-27T04:16:10.091Z,5.13
2018-04-27T04:18:37.661Z,5.03
2018-04-27T04:21:05.319Z,5.10
2018-04-27T04:23:32.871Z,5.01
2018-04-27T04:26:00.423Z,5.17
2018-04-27T04:28:28.096Z,4.98
2018-04-27T04:30:55.623Z,5.02
2018-04-27T04:33:23.185Z,5.15
2018-04-27T04:35:50.707Z,5.28
2018-04-27T04:38:18.331Z,5.46
2018-04-27T04:40:45.836Z,5.29
2018-04-27T04:43:13.588Z,5.27
2018-04-27T04:45:41.747Z,5.41
2018-04-27T04:48:09.988Z,5.35
2018-04-27T04:50:37.544Z,5.39
2018-04-27T04:53:05.073Z,5.37
2018-04-27T04:55:32.652Z,5.37
2018-04-27T04:58:00.251Z,5.29
2018-04-27T05:00:27.805Z,5.43
2018-04-27T05:02:55.416Z,5.35
2018-04-27T05:05:24.422Z,5.30
2018-04-27T05:07:52.119Z,5.30
2018-04-27T05:10:20.914Z,5.50
2018-04-27T05:12:48.465Z,5.70
2018-04-27T05:15:23.486Z,5.70
2018-04-27T05:17:52.839Z,5.73
2018-04-27T05:20:19.845Z,5.73
2018-04-27T05:22:47.694Z,5.85
2018-04-27T05:25:15.276Z,5.71
2018-04-27T05:27:42.830Z,5.86
2018-04-27T05:30:10.359Z,5.69
2018-04-27T05:32:39.429Z,6.02
2018-04-27T05:35:07.311Z,5.96
2018-04-27T05:37:35.253Z,6.08
2018-04-27T05:40:03.119Z,6.13
2018-04-27T05:42:34.886Z,6.22
2018-04-27T05:45:02.792Z,6.25
2018-04-27T05:47:30.346Z,6.24
2018-04-27T05:49:58.042Z,6.28
2018-04-27T05:52:25.601Z,6.38
2018-04-27T05:54:53.127Z,6.59
2018-04-27T05:57:20.680Z,6.72
2018-04-27T05:59:48.233Z,6.68
2018-04-27T06:02:15.786Z,6.73
2018-04-27T06:04:43.437Z,6.79
2018-04-27T06:07:10.934Z,7.01
2018-04-27T06:09:38.490Z,7.06
2018-04-27T06:12:06.018Z,7.00
2018-04-27T06:14:33.630Z,7.18
2018-04-27T06:17:01.173Z,7.38
2018-04-27T06:19:28.852Z,7.46
2018-04-27T06:21:56.372Z,7.53
2018-04-27T06:24:23.902Z,7.66
2018-04-27T06:26:51.506Z,7.67
2018-04-27T06:29:19.033Z,7.76
2018-04-27T06:31:46.641Z,7.86
2018-04-27T06:34:14.187Z,7.92
2018-04-27T06:36:41.737Z,8.00
2018-04-27T06:39:09.339Z,8.19
2018-04-27T06:41:37.544Z,8.30
2018-04-27T06:44:05.161Z,8.34
2018-04-27T06:46:36.048Z,8.47
2018-04-27T06:49:03.818Z,8.53
2018-04-27T06:51:31.421Z,8.59
2018-04-27T06:53:59.008Z,8.69
2018-04-27T06:56:26.563Z,8.82
2018-04-27T06:58:54.159Z,8.94
2018-04-27T07:01:21.717Z,9.01
2018-04-27T07:03:49.337Z,9.14
2018-04-27T07:06:16.879Z,9.28
2018-04-27T07:08:44.474Z,9.38
2018-04-27T07:11:11.995Z,9.41
2018-04-27T07:13:39.545Z,9.46
2018-04-27T07:16:07.074Z,9.53
2018-04-27T07:18:34.628Z,9.64
2018-04-27T07:21:02.148Z,9.81
2018-04-27T07:23:29.750Z,9.91
2018-04-27T07:25:57.296Z,10.11
2018-04-27T07:28:24.838Z,10.18
2018-04-27T07:30:52.412Z,10.20
2018-04-27T07:33:19.943Z,10.34
2018-04-27T07:35:47.498Z,10.56
2018-04-27T07:38:15.050Z,10.71
2018-04-27T07:40:42.602Z,10.79
2018-04-27T07:43:10.148Z,10.95
2018-04-27T07:45:37.703Z,10.99
2018-04-27T07:48:05.228Z,11.19
2018-04-27T07:50:32.829Z,11.19
2018-04-27T07:53:00.390Z,11.22
2018-04-27T07:55:27.933Z,11.37
2018-04-27T07:57:55.486Z,11.56
2018-04-27T08:00:23.066Z,11.73
2018-04-27T08:02:50.665Z,11.83
2018-04-27T08:05:18.217Z,11.96
2018-04-27T08:07:45.804Z,11.96
2018-04-27T08:10:13.360Z,12.06
2018-04-27T08:12:41.027Z,12.32
2018-04-27T08:15:13.204Z,12.60
2018-04-27T08:17:44.802Z,12.80
2018-04-27T08:20:18.491Z,12.85
2018-04-27T08:22:47.767Z,12.73
2018-04-27T08:25:17.114Z,12.94
2018-04-27T08:27:45.915Z,12.85
2018-04-27T08:30:17.650Z,13.03
2018-04-27T08:32:46.320Z,13.24
2018-04-27T08:35:15.949Z,13.33
2018-04-27T08:37:47.547Z,13.41
2018-04-27T08:40:15.801Z,13.51
2018-04-27T08:42:46.677Z,13.53
2018-04-27T08:45:16.958Z,13.66
2018-04-27T08:47:44.812Z,13.73
2018-04-27T08:50:14.987Z,13.61
2018-04-27T08:52:44.946Z,13.75
2018-04-27T08:55:14.065Z,13.58
2018-04-27T08:57:44.418Z,13.87
2018-04-27T09:00:12.230Z,13.79
2018-04-27T09:02:40.751Z,13.94
2018-04-27T09:05:08.525Z,14.11
2018-04-27T09:07:37.407Z,14.20
2018-04-27T09:10:07.083Z,14.29
2018-04-27T09:12:37.798Z,14.02
2018-04-27T09:15:07.313Z,14.24
2018-04-27T09:17:37.032Z,14.42
2018-04-27T09:20:07.037Z,14.60
2018-04-27T09:22:36.093Z,14.55
2018-04-27T09:25:07.747Z,14.47
2018-04-27T09:27:36.997Z,14.79
2018-04-27T09:30:06.703Z,14.87
2018-04-27T09:32:36.601Z,15.00
2018-04-27T09:35:06.932Z,14.98
2018-04-27T09:37:34.509Z,15.17
2018-04-27T09:40:02.027Z,15.21
2018-04-27T09:42:29.664Z,15.23
2018-04-27T09:44:58.367Z,15.30
2018-04-27T09:47:26.116Z,15.31
2018-04-27T09:49:53.668Z,15.25
2018-04-27T09:52:21.220Z,15.24
2018-04-27T09:54:48.750Z,15.50
2018-04-27T09:57:16.350Z,15.53
2018-04-27T09:59:43.945Z,15.62
2018-04-27T10:02:11.527Z,15.67
2018-04-27T10:04:39.048Z,15.78
2018-04-27T10:07:06.633Z,15.77
2018-04-27T10:09:34.300Z,15.83
2018-04-27T10:12:01.889Z,15.96
2018-04-27T10:14:30.762Z,16.13
2018-04-27T10:16:58.308Z,16.06
2018-04-27T10:19:25.923Z,16.22
2018-04-27T10:21:53.695Z,16.25
2018-04-27T10:24:21.249Z,16.33
2018-04-27T10:26:48.794Z,16.13
2018-04-27T10:29:16.356Z,16.34
2018-04-27T10:31:43.875Z,16.85
2018-04-27T10:34:11.458Z,16.93
2018-04-27T10:36:39.027Z,16.93
2018-04-27T10:39:06.611Z,16.80
2018-04-27T10:41:34.413Z,16.75
2018-04-27T10:44:02.065Z,16.83
2018-04-27T10:46:29.619Z,17.11
2018-04-27T10:48:57.145Z,17.35
2018-04-27T10:51:24.721Z,17.49
2018-04-27T10:53:52.271Z,17.29
2018-04-27T10:56:20.177Z,17.66
2018-04-27T10:58:47.772Z,17.60
2018-04-27T11:01:15.402Z,17.81
2018-04-27T11:03:42.958Z,17.65
2018-04-27T11:06:11.485Z,18.00
2018-04-27T11:08:41.688Z,18.25
2018-04-27T11:11:09.840Z,17.89
2018-04-27T11:13:37.543Z,18.18
2018-04-27T11:16:05.797Z,18.11
2018-04-27T11:18:33.998Z,18.37
2018-04-27T11:21:02.097Z,18.46
2018-04-27T11:23:30.410Z,18.57
2018-04-27T11:25:58.804Z,18.77
2018-04-27T11:28:27.002Z,18.72
2018-04-27T11:30:55.611Z,18.76
2018-04-27T11:33:24.003Z,18.87
2018-04-27T11:35:51.713Z,19.01
2018-04-27T11:38:25.079Z,19.01
2018-04-27T11:40:53.039Z,19.12
2018-04-27T11:43:21.136Z,18.93
2018-04-27T11:45:50.905Z,18.82
2018-04-27T11:48:22.145Z,18.61
2018-04-27T11:50:50.100Z,18.54
2018-04-27T11:53:18.835Z,18.70
2018-04-27T11:55:48.251Z,18.81
2018-04-27T11:58:17.643Z,18.98
2018-04-27T12:00:51.208Z,19.06
2018-04-27T12:03:19.196Z,19.02
2018-04-27T12:05:48.296Z,19.17
2018-04-27T12:08:16.189Z,19.18
2018-04-27T12:10:46.377Z,19.21
2018-04-27T12:13:15.093Z,19.20
2018-04-27T12:15:42.731Z,19.34
2018-04-27T12:18:10.352Z,19.37
2018-04-27T12:20:37.904Z,19.81
2018-04-27T12:23:05.458Z,19.94
2018-04-27T12:25:33.072Z,19.99
2018-04-27T12:28:00.763Z,19.91
2018-04-27T12:30:28.287Z,20.11
2018-04-27T12:32:55.847Z,20.02
2018-04-27T12:35:23.421Z,20.06
2018-04-27T12:37:51.015Z,20.47
2018-04-27T12:40:18.632Z,20.75
2018-04-27T12:42:46.224Z,20.62
2018-04-27T12:45:13.955Z,20.92
2018-04-27T12:47:41.598Z,20.98
2018-04-27T12:50:09.182Z,20.78
2018-04-27T12:52:36.706Z,20.85
2018-04-27T12:55:04.295Z,20.86
2018-04-27T12:57:31.887Z,20.76
2018-04-27T12:59:59.439Z,20.31
2018-04-27T13:02:26.971Z,20.07
2018-04-27T13:04:57.114Z,20.48
2018-04-27T13:07:24.654Z,20.15
2018-04-27T13:09:52.206Z,20.04
2018-04-27T13:12:19.804Z,20.17
2018-04-27T13:14:47.957Z,20.42
2018-04-27T13:17:15.855Z,20.30
2018-04-27T13:19:43.910Z,20.28
2018-04-27T13:22:12.010Z,20.45
2018-04-27T13:24:44.364Z,20.56
2018-04-27T13:27:13.317Z,20.19
2018-04-27T13:29:40.890Z,20.48
2018-04-27T13:32:08.436Z,20.42
2018-04-27T13:34:35.973Z,20.73
2018-04-27T13:37:04.823Z,20.58
2018-04-27T13:39:32.478Z,20.30
2018-04-27T13:42:00.028Z,20.46
2018-04-27T13:44:27.575Z,20.62
2018-04-27T13:46:55.182Z,20.49
2018-04-27T13:49:22.787Z,20.80
2018-04-27T13:51:50.406Z,21.05
2018-04-27T13:54:18.733Z,21.21
2018-04-27T13:56:46.346Z,21.00
2018-04-27T13:59:13.945Z,20.83
2018-04-27T14:01:41.546Z,20.88
2018-04-27T14:04:09.066Z,20.97
2018-04-27T14:06:40.716Z,20.97
2018-04-27T14:09:10.384Z,20.97
2018-04-27T14:11:38.264Z,21.06
2018-04-27T14:14:06.243Z,21.45
2018-04-27T14:16:34.163Z,21.03
2018-04-27T14:19:04.569Z,21.21
2018-04-27T14:21:33.232Z,21.09
2018-04-27T14:24:01.167Z,20.94
2018-04-27T14:26:28.770Z,20.93
2018-04-27T14:28:56.326Z,20.76
2018-04-27T14:31:23.991Z,21.07
2018-04-27T14:33:51.587Z,21.35
2018-04-27T14:36:19.132Z,21.51
2018-04-27T14:38:46.682Z,21.07
2018-04-27T14:41:14.206Z,21.41
2018-04-27T14:43:41.753Z,21.87
2018-04-27T14:46:09.286Z,21.62
2018-04-27T14:48:36.868Z,21.73
2018-04-27T14:51:04.416Z,21.57
2018-04-27T14:53:31.965Z,21.56
2018-04-27T14:55:59.519Z,21.10
2018-04-27T14:58:27.149Z,21.30
2018-04-27T15:00:54.807Z,21.59
2018-04-27T15:03:22.426Z,21.23
2018-04-27T15:05:49.953Z,21.46
2018-04-27T15:08:17.529Z,21.64
2018-04-27T15:10:45.086Z,21.86
2018-04-27T15:13:12.659Z,21.81
2018-04-27T15:15:40.186Z,21.88
2018-04-27T15:18:07.742Z,22.12
2018-04-27T15:20:35.266Z,21.84
2018-04-27T15:23:02.838Z,21.83
2018-04-27T15:25:30.372Z,21.62
2018-04-27T15:27:57.924Z,21.69
2018-04-27T15:30:25.530Z,21.52
2018-04-27T15:32:53.081Z,21.71
2018-04-27T15:35:20.634Z,21.90
2018-04-27T15:37:49.077Z,21.86
2018-04-27T15:40:16.734Z,21.73
2018-04-27T15:42:44.291Z,21.77
2018-04-27T15:45:11.939Z,22.08
2018-04-27T15:47:39.561Z,21.95
2018-04-27T15:50:07.176Z,22.54
2018-04-27T15:52:34.778Z,22.06
2018-04-27T15:55:02.327Z,21.41
2018-04-27T15:57:29.916Z,21.12
2018-04-27T15:59:57.558Z,21.62
2018-04-27T16:02:25.077Z,21.45
2018-04-27T16:04:52.979Z,21.68
2018-04-27T16:07:20.534Z,21.72
2018-04-27T16:09:48.214Z,21.23
2018-04-27T16:12:15.765Z,21.33
2018-04-27T16:14:43.427Z,21.37
2018-04-27T16:17:11.020Z,21.07
2018-04-27T16:19:38.647Z,21.86
2018-04-27T16:22:06.217Z,21.70
2018-04-27T16:24:34.650Z,21.58
2018-04-27T16:27:02.178Z,21.82
2018-04-27T16:31:56.602Z,22.32
2018-04-27T16:34:24.187Z,22.80
2018-04-27T16:36:53.488Z,22.35
2018-04-27T16:39:22.863Z,22.88
2018-04-27T16:41:55.734Z,22.57
2018-04-27T16:44:27.092Z,22.10
2018-04-27T16:46:58.881Z,22.42
2018-04-27T16:49:30.800Z,22.79
2018-04-27T16:52:01.044Z,22.40
2018-04-27T16:54:30.652Z,21.93
2018-04-27T16:57:00.289Z,22.36
2018-04-27T16:59:28.371Z,21.92
2018-04-27T17:01:56.970Z,21.54
2018-04-27T17:04:30.663Z,21.36
2018-04-27T17:07:00.338Z,21.83
2018-04-27T17:09:32.740Z,22.00
2018-04-27T17:12:00.606Z,23.47
2018-04-27T17:14:32.091Z,23.25
2018-04-27T17:17:00.435Z,24.10
2018-04-27T17:19:28.578Z,25.60
2018-04-27T17:21:56.290Z,25.60
2018-04-27T17:24:24.402Z,26.00
2018-04-27T17:26:52.002Z,24.74
2018-04-27T17:29:20.084Z,25.03
2018-04-27T17:31:47.940Z,24.59
2018-04-27T17:34:17.086Z,23.89
2018-04-27T17:36:45.163Z,23.74
2018-04-27T17:39:16.202Z,23.66
2018-04-27T17:41:44.146Z,23.16
2018-04-27T17:44:11.696Z,23.71
2018-04-27T17:46:39.726Z,23.47
2018-04-27T17:49:08.951Z,23.11
2018-04-27T17:51:38.554Z,23.41
2018-04-27T17:54:08.406Z,23.17
2018-04-27T17:56:39.682Z,21.54
2018-04-27T17:59:08.406Z,21.08
2018-04-27T18:01:39.982Z,20.37
2018-04-27T18:04:08.131Z,20.22
2018-04-27T18:06:41.569Z,19.97
2018-04-27T18:09:09.119Z,19.88
2018-04-27T18:11:36.757Z,19.82
2018-04-27T18:14:04.304Z,19.69
2018-04-27T18:16:31.878Z,19.66
2018-04-27T18:18:59.435Z,19.60
2018-04-27T18:21:27.085Z,19.50
2018-04-27T18:23:54.609Z,19.41
2018-04-27T18:26:22.186Z,19.42
2018-04-27T18:28:49.757Z,19.48
2018-04-27T18:31:17.314Z,19.37
2018-04-27T18:33:46.857Z,19.26
2018-04-27T18:36:14.569Z,19.20
2018-04-27T18:38:42.150Z,19.16
2018-04-27T18:41:09.699Z,18.98
2018-04-27T18:43:37.232Z,18.88
2018-04-27T18:46:04.834Z,18.72
2018-04-27T18:48:33.007Z,18.68
2018-04-27T18:51:00.635Z,18.60
2018-04-27T18:53:29.724Z,18.52
2018-04-27T18:55:57.312Z,18.45
2018-04-27T18:58:24.845Z,18.24
2018-04-27T19:00:52.419Z,18.16
2018-04-27T19:03:20.850Z,18.05
2018-04-27T19:05:48.646Z,17.83
2018-04-27T19:08:16.238Z,17.80
2018-04-27T19:10:45.451Z,17.67
2018-04-27T19:13:13.029Z,17.80
2018-04-27T19:15:41.981Z,17.76
2018-04-27T19:18:09.859Z,17.70
2018-04-27T19:20:37.387Z,17.56
2018-04-27T19:23:07.943Z,17.48
2018-04-27T19:25:48.918Z,17.45
2018-04-27T19:28:16.494Z,17.30
2018-04-27T19:30:44.969Z,17.31
2018-04-27T19:33:12.576Z,17.19
2018-04-27T19:35:40.151Z,17.13
2018-04-27T19:38:08.051Z,17.00
2018-04-27T19:40:37.759Z,17.06
2018-04-27T19:43:05.756Z,16.87
2018-04-27T19:45:33.329Z,16.96
2018-04-27T19:48:00.963Z,16.80
2018-04-27T19:50:29.311Z,16.86
2018-04-27T19:52:56.863Z,16.69
2018-04-27T19:55:24.442Z,16.63
2018-04-27T19:57:55.893Z,16.59
2018-04-27T20:00:30.302Z,16.56
2018-04-27T20:03:00.481Z,16.47
2018-04-27T20:05:31.523Z,16.53
2018-04-27T20:08:00.952Z,16.37
2018-04-27T20:10:33.534Z,16.29
2018-04-27T20:13:01.011Z,16.22
2018-04-27T20:15:36.559Z,16.26
2018-04-27T20:18:16.927Z,16.30
2018-04-27T20:20:44.592Z,16.17
2018-04-27T20:23:13.965Z,16.23
2018-04-27T20:25:42.200Z,16.05
2018-04-27T20:28:10.565Z,16.11
2018-04-27T20:30:38.122Z,16.12
2018-04-27T20:33:06.446Z,16.05
2018-04-27T20:35:34.033Z,15.89
2018-04-27T20:38:03.908Z,15.78
2018-04-27T20:40:31.426Z,15.84
2018-04-27T20:43:11.531Z,15.75
2018-04-27T20:45:39.119Z,15.58
2018-04-27T20:48:19.595Z,15.53
2018-04-27T20:50:50.091Z,15.58
2018-04-27T20:53:17.675Z,15.61
2018-04-27T20:55:45.246Z,15.43
2018-04-27T20:58:12.888Z,15.51
2018-04-27T21:00:45.001Z,15.22
2018-04-27T21:03:12.730Z,15.29
2018-04-27T21:05:40.257Z,15.27
2018-04-27T21:08:07.835Z,15.33
2018-04-27T21:10:37.832Z,15.24
2018-04-27T21:13:05.635Z,15.18
2018-04-27T21:15:33.490Z,15.45
2018-04-27T21:18:01.290Z,15.37
2018-04-27T21:20:29.197Z,15.25
2018-04-27T21:22:58.145Z,15.26
2018-04-27T21:25:31.866Z,15.22
2018-04-27T21:28:01.419Z,15.10
2018-04-27T21:30:34.521Z,15.15
2018-04-27T21:33:06.256Z,15.20
2018-04-27T21:35:42.148Z,15.07
2018-04-27T21:38:21.304Z,15.27
2018-04-27T21:40:49.636Z,15.03
2018-04-27T21:43:19.332Z,15.02
2018-04-27T21:45:48.467Z,14.97
2018-04-27T21:48:16.412Z,14.82
2018-04-27T21:50:45.498Z,14.81
2018-04-27T21:53:13.275Z,14.75
2018-04-27T21:55:40.931Z,14.72
2018-04-27T21:58:11.377Z,14.75
2018-04-27T22:00:39.282Z,14.69
2018-04-27T22:03:15.027Z,14.44
2018-04-27T22:08:47.596Z,14.64
2018-04-27T22:11:27.046Z,14.92
2018-04-27T22:13:54.974Z,14.92
2018-04-27T22:16:24.379Z,14.82
2018-04-27T22:18:53.234Z,14.79
2018-04-27T22:21:22.848Z,15.00
2018-04-27T22:24:05.328Z,14.71
2018-04-27T22:26:34.783Z,14.69
2018-04-27T22:29:03.056Z,14.66
2018-04-27T22:31:30.582Z,14.59
2018-04-27T22:34:00.957Z,14.59
2018-04-27T22:36:44.169Z,14.54
2018-04-27T22:39:17.672Z,14.74
2018-04-27T22:41:56.166Z,14.56
2018-04-27T22:44:27.738Z,14.63
2018-04-27T22:46:56.834Z,14.54
2018-04-27T22:49:25.780Z,14.48
2018-04-27T22:51:53.442Z,14.83
2018-04-27T22:54:38.831Z,14.51
2018-04-27T22:57:28.441Z,14.41
2018-04-27T23:02:53.835Z,14.31
2018-04-27T23:05:36.619Z,14.00
2018-04-27T23:08:04.622Z,14.04
2018-04-27T23:10:51.966Z,13.86
2018-04-27T23:13:23.093Z,13.68
2018-04-27T23:15:55.969Z,13.65
2018-04-27T23:18:24.453Z,13.64
2018-04-27T23:20:57.285Z,13.32
2018-04-27T23:23:25.730Z,13.49
2018-04-27T23:25:53.656Z,13.26
2018-04-27T23:28:22.254Z,13.39
2018-04-27T23:30:50.786Z,13.34
2018-04-27T23:33:19.462Z,13.19
2018-04-27T23:35:51.121Z,13.10
2018-04-27T23:38:20.731Z,13.13
2018-04-27T23:40:52.544Z,13.00
2018-04-27T23:43:21.867Z,12.83
2018-04-27T23:45:50.303Z,12.67
2018-04-27T23:48:19.577Z,12.80
2018-04-27T23:50:49.686Z,12.61
2018-04-27T23:53:18.451Z,12.67
2018-04-27T23:55:46.610Z,12.63
2018-04-27T23:58:16.690Z,12.57
